Time;durP1;ratioP1;P1;durP2;ratioP2;P2;SDS_P1;SDS_P2;PMS_P1;PMS_P2;Temp;Humidity;BMP_temperature;BMP_pressure;BME280_temperature;BME280_humidity;BME280_pressure;Samples;Min_cycle;Max_cycle;Signal;HPM_P1;HPM_P2
2023/06/15 00:01:14;;;;;;;5.38;2.83;;;16.80;98.70;;;;;;5116986;27;20113;-69
2023/06/15 00:03:42;;;;;;;8.20;2.50;;;16.80;98.80;;;;;;5102037;27;20093;-69
2023/06/15 00:06:08;;;;;;;7.30;2.90;;;16.80;98.90;;;;;;5097924;27;20074;-69
2023/06/15 00:08:34;;;;;;;6.43;2.92;;;16.80;98.90;;;;;;5102475;27;20081;-69
2023/06/15 00:11:00;;;;;;;6.03;2.88;;;16.80;99.00;;;;;;5117704;27;20054;-70
2023/06/15 00:13:26;;;;;;;6.80;2.90;;;16.70;99.00;;;;;;5100064;27;20045;-70
2023/06/15 00:15:52;;;;;;;5.70;2.90;;;16.70;99.10;;;;;;5112898;27;20043;-68
2023/06/15 00:18:19;;;;;;;6.53;2.70;;;16.70;99.10;;;;;;5119503;27;20108;-70
2023/06/15 00:20:45;;;;;;;5.85;3.03;;;16.70;99.20;;;;;;5115841;27;20047;-70
2023/06/15 00:23:11;;;;;;;7.18;2.72;;;16.70;99.30;;;;;;5086785;27;20533;-69
2023/06/15 00:25:37;;;;;;;7.63;2.92;;;16.70;99.30;;;;;;5101966;27;20043;-70
2023/06/15 00:28:03;;;;;;;5.30;2.92;;;16.60;99.30;;;;;;5114941;27;20370;-69
2023/06/15 00:30:29;;;;;;;6.32;2.97;;;16.60;99.40;;;;;;5086009;27;20875;-69
2023/06/15 00:32:55;;;;;;;6.40;3.10;;;16.60;99.50;;;;;;5116915;27;20066;-69
2023/06/15 00:35:21;;;;;;;8.85;2.83;;;16.50;99.50;;;;;;5116726;27;20433;-69
2023/06/15 00:37:47;;;;;;;8.40;3.13;;;16.50;99.50;;;;;;5117132;27;20078;-69
2023/06/15 00:40:12;;;;;;;8.10;3.10;;;16.50;99.60;;;;;;5114587;27;20538;-69
2023/06/15 00:42:38;;;;;;;5.28;2.67;;;16.50;99.70;;;;;;5137979;27;20060;-68
2023/06/15 00:45:06;;;;;;;8.75;2.80;;;16.40;99.70;;;;;;5116189;27;20107;-69
2023/06/15 00:47:38;;;;;;;5.88;3.10;;;16.40;99.70;;;;;;5099659;27;20047;-69
2023/06/15 00:50:09;;;;;;;4.70;3.05;;;16.40;99.70;;;;;;5113013;27;20039;-69
2023/06/15 00:52:36;;;;;;;5.43;2.92;;;16.40;99.80;;;;;;5136658;27;20042;-68
2023/06/15 00:55:03;;;;;;;6.32;3.30;;;16.40;99.80;;;;;;5117765;27;20061;-70
2023/06/15 00:57:30;;;;;;;7.30;2.65;;;16.40;99.90;;;;;;5116877;27;20046;-68
2023/06/15 00:59:56;;;;;;;5.35;2.70;;;16.30;99.90;;;;;;5117420;27;20062;-69
2023/06/15 01:02:24;;;;;;;6.50;3.10;;;16.30;99.90;;;;;;5101394;27;20035;-71
2023/06/15 01:04:50;;;;;;;9.55;3.10;;;16.50;99.90;;;;;;5096582;27;20204;-70
2023/06/15 01:07:20;;;;;;;5.68;2.83;;;16.30;99.90;;;;;;5118581;27;20047;-69
2023/06/15 01:09:48;;;;;;;6.53;2.97;;;16.30;99.90;;;;;;5114941;27;20058;-69
2023/06/15 01:12:14;;;;;;;6.95;2.83;;;16.20;99.90;;;;;;5118473;27;20070;-69
2023/06/15 01:14:41;;;;;;;5.22;2.92;;;16.30;99.90;;;;;;5112946;27;20202;-69
2023/06/15 01:17:13;;;;;;;7.03;3.20;;;16.20;99.90;;;;;;5133540;27;20727;-69
2023/06/15 01:19:57;;;;;;;7.57;3.20;;;16.20;99.90;;;;;;5114308;27;20122;-68
2023/06/15 01:22:45;;;;;;;6.20;3.42;;;16.20;99.90;;;;;;5114898;27;20043;-68
2023/06/15 01:25:39;;;;;;;5.82;3.03;;;16.20;99.90;;;;;;5094869;27;20105;-69
2023/06/15 01:28:07;;;;;;;5.75;3.20;;;16.10;99.90;;;;;;5113980;27;20050;-69
2023/06/15 01:30:43;;;;;;;8.65;3.50;;;16.10;99.90;;;;;;5115403;27;20118;-70
2023/06/15 01:33:08;;;;;;;;;;;16.10;99.90;;;;;;5118757;27;20083;-70
2023/06/15 01:35:35;;;;;;;6.68;3.53;;;16.00;99.90;;;;;;5111146;27;20440;-69
2023/06/15 01:38:01;;;;;;;6.05;3.47;;;16.00;99.90;;;;;;5114581;27;20055;-70
2023/06/15 01:40:28;;;;;;;6.40;3.78;;;16.00;99.90;;;;;;5097607;27;20054;-70
2023/06/15 01:42:55;;;;;;;5.13;3.15;;;16.00;99.90;;;;;;5115768;27;20565;-70
2023/06/15 01:45:22;;;;;;;9.10;3.90;;;16.00;99.90;;;;;;5101368;27;20152;-70
2023/06/15 01:47:49;;;;;;;7.22;3.72;;;16.10;99.90;;;;;;5112951;27;20051;-70
2023/06/15 01:50:16;;;;;;;9.00;4.05;;;16.00;99.90;;;;;;5095031;27;20127;-71
2023/06/15 01:52:42;;;;;;;6.93;4.22;;;16.00;99.90;;;;;;5115455;27;20070;-70
2023/06/15 01:55:08;;;;;;;7.53;4.18;;;16.00;99.90;;;;;;5098797;27;20603;-70
2023/06/15 01:57:38;;;;;;;6.28;3.97;;;16.00;99.90;;;;;;5115631;27;20047;-68
2023/06/15 02:00:06;;;;;;;8.00;4.07;;;16.00;99.90;;;;;;5112476;27;20085;-68
2023/06/15 02:02:34;;;;;;;6.88;4.10;;;16.00;99.90;;;;;;5114254;27;20455;-69
2023/06/15 02:05:03;;;;;;;6.30;4.18;;;16.00;99.90;;;;;;5117161;27;20780;-69
2023/06/15 02:07:28;;;;;;;6.78;3.95;;;16.00;99.90;;;;;;5116486;27;20050;-69
2023/06/15 02:09:54;;;;;;;6.78;3.97;;;16.00;99.90;;;;;;5109235;27;20412;-70
2023/06/15 02:12:20;;;;;;;7.47;3.88;;;15.90;99.90;;;;;;5080267;27;20464;-70
2023/06/15 02:14:47;;;;;;;5.07;3.38;;;15.90;99.90;;;;;;5098725;27;20047;-69
2023/06/15 02:17:14;;;;;;;6.80;3.60;;;15.90;99.90;;;;;;5094512;27;20070;-69
2023/06/15 02:19:40;;;;;;;6.45;3.80;;;15.90;99.90;;;;;;5094532;27;20088;-69
2023/06/15 02:22:06;;;;;;;6.68;3.67;;;15.90;99.90;;;;;;5098149;27;20401;-70
2023/06/15 02:24:32;;;;;;;5.30;3.80;;;15.90;99.90;;;;;;5115955;27;20095;-68
2023/06/15 02:26:58;;;;;;;6.90;4.28;;;15.90;99.90;;;;;;5117507;27;20042;-68
2023/06/15 02:29:24;;;;;;;7.60;4.40;;;15.80;99.90;;;;;;5114046;27;20050;-69
2023/06/15 02:31:49;;;;;;;8.65;4.10;;;15.80;99.90;;;;;;5128643;27;20599;-69
2023/06/15 02:34:15;;;;;;;7.82;3.88;;;15.80;99.90;;;;;;5100398;27;20057;-70
2023/06/15 02:36:41;;;;;;;6.72;3.83;;;15.80;99.90;;;;;;5099322;27;20066;-69
2023/06/15 02:39:06;;;;;;;6.97;3.67;;;15.70;99.90;;;;;;5115171;27;20376;-69
2023/06/15 02:41:32;;;;;;;5.88;3.78;;;15.80;99.90;;;;;;5110493;27;20058;-69
2023/06/15 02:43:58;;;;;;;9.45;4.10;;;15.70;99.90;;;;;;5099615;27;20103;-69
2023/06/15 02:46:24;;;;;;;7.72;3.67;;;15.70;99.90;;;;;;5097992;27;20047;-69
2023/06/15 02:48:51;;;;;;;6.55;3.75;;;15.70;99.90;;;;;;5113915;27;20055;-68
2023/06/15 02:51:20;;;;;;;7.43;4.32;;;15.70;99.90;;;;;;5099537;27;20059;-69
2023/06/15 02:53:47;;;;;;;6.70;4.13;;;15.70;99.90;;;;;;5108593;27;20055;-69
2023/06/15 02:56:18;;;;;;;6.90;3.92;;;15.60;99.90;;;;;;5118817;27;20050;-69
2023/06/15 02:58:57;;;;;;;6.00;4.28;;;15.60;99.90;;;;;;5115328;27;20046;-68
2023/06/15 03:01:23;;;;;;;6.43;3.88;;;15.70;99.90;;;;;;5098887;27;20055;-69
2023/06/15 03:03:50;;;;;;;10.52;4.60;;;15.60;99.90;;;;;;5099867;27;20050;-71
2023/06/15 03:06:16;;;;;;;6.22;3.88;;;15.60;99.90;;;;;;5115847;27;20050;-70
2023/06/15 03:08:42;;;;;;;10.40;4.50;;;15.60;99.90;;;;;;5115538;27;20043;-71
2023/06/15 03:11:09;;;;;;;5.25;4.10;;;15.50;99.90;;;;;;5113218;27;20038;-70
2023/06/15 03:13:35;;;;;;;4.90;4.05;;;15.50;99.90;;;;;;5093736;27;20047;-69
2023/06/15 03:16:01;;;;;;;8.63;4.43;;;15.50;99.90;;;;;;5081401;27;20111;-70
2023/06/15 03:18:29;;;;;;;8.20;4.45;;;15.50;99.90;;;;;;5114935;27;20047;-70
2023/06/15 03:20:56;;;;;;;5.85;3.78;;;15.50;99.90;;;;;;5112839;27;20039;-69
2023/06/15 03:23:25;;;;;;;5.97;3.88;;;15.50;99.90;;;;;;5082142;27;20039;-70
2023/06/15 03:25:52;;;;;;;6.25;3.97;;;15.50;99.90;;;;;;5099111;27;20070;-69
2023/06/15 03:28:24;;;;;;;5.20;3.85;;;15.50;99.90;;;;;;5110842;27;20070;-69
2023/06/15 03:30:56;;;;;;;5.15;3.63;;;15.50;99.90;;;;;;5114867;27;20126;-69
2023/06/15 03:33:22;;;;;;;6.82;4.15;;;15.50;99.90;;;;;;5098917;27;20031;-71
2023/06/15 03:35:49;;;;;;;9.68;4.15;;;15.50;99.90;;;;;;5095322;27;20125;-70
2023/06/15 03:38:18;;;;;;;10.00;4.47;;;15.50;99.90;;;;;;5115327;27;20197;-70
2023/06/15 03:40:43;;;;;;;8.02;4.32;;;15.50;99.90;;;;;;5115853;27;20054;-70
2023/06/15 03:43:13;;;;;;;7.70;3.95;;;15.50;99.90;;;;;;5096965;27;20043;-69
2023/06/15 03:45:42;;;;;;;7.80;4.43;;;15.50;99.90;;;;;;5109382;27;20104;-69
2023/06/15 03:48:08;;;;;;;7.72;4.10;;;15.50;99.90;;;;;;5097076;27;20135;-69
2023/06/15 03:50:33;;;;;;;5.70;4.13;;;15.50;99.90;;;;;;5115118;27;20462;-69
2023/06/15 03:53:00;;;;;;;7.50;4.65;;;15.50;99.90;;;;;;5135450;27;20099;-69
2023/06/15 03:55:26;;;;;;;8.88;4.40;;;15.50;99.90;;;;;;5113361;27;20046;-69
2023/06/15 03:57:51;;;;;;;8.40;4.68;;;15.50;99.90;;;;;;5095982;27;20070;-69
2023/06/15 04:00:18;;;;;;;6.05;4.13;;;15.60;99.90;;;;;;5111826;27;20409;-68
2023/06/15 04:02:44;;;;;;;8.85;4.78;;;15.60;99.90;;;;;;5097994;27;20116;-69
2023/06/15 04:05:10;;;;;;;7.82;4.35;;;15.60;99.90;;;;;;5117499;27;20053;-69
2023/06/15 04:07:36;;;;;;;5.47;4.07;;;15.60;99.90;;;;;;5091374;27;20039;-69
2023/06/15 04:10:04;;;;;;;6.25;3.90;;;15.60;99.90;;;;;;5112972;27;20039;-70
2023/06/15 04:12:30;;;;;;;5.68;3.85;;;15.60;99.90;;;;;;5093998;27;20043;-71
2023/06/15 04:14:55;;;;;;;5.97;4.10;;;15.60;99.90;;;;;;5130819;27;20082;-73
2023/06/15 04:17:21;;;;;;;6.50;4.03;;;15.70;99.90;;;;;;5089577;27;20047;-70
2023/06/15 04:19:47;;;;;;;6.40;3.97;;;15.70;99.90;;;;;;5102895;27;20163;-72
2023/06/15 04:22:13;;;;;;;9.20;4.35;;;15.70;99.90;;;;;;5101371;27;20480;-71
2023/06/15 04:24:39;;;;;;;7.05;4.15;;;15.70;99.90;;;;;;5103495;27;20049;-72
2023/06/15 04:27:06;;;;;;;8.75;4.03;;;15.70;99.90;;;;;;5103614;27;20058;-71
2023/06/15 04:29:33;;;;;;;6.22;3.75;;;15.80;99.90;;;;;;5066089;27;20043;-72
2023/06/15 04:31:59;;;;;;;7.40;4.55;;;15.80;99.90;;;;;;5114449;27;20042;-72
2023/06/15 04:34:26;;;;;;;5.53;4.13;;;15.80;99.90;;;;;;5114411;27;20070;-72
2023/06/15 04:36:52;;;;;;;7.05;3.97;;;15.90;99.90;;;;;;5115706;27;20054;-72
2023/06/15 04:39:22;;;;;;;4.80;3.70;;;15.90;99.90;;;;;;5100196;27;20401;-72
2023/06/15 04:41:48;;;;;;;7.65;4.00;;;15.90;99.90;;;;;;5117750;27;20065;-72
2023/06/15 04:44:14;;;;;;;6.88;4.28;;;15.90;99.90;;;;;;5101756;27;20141;-72
2023/06/15 04:46:41;;;;;;;8.75;4.35;;;16.00;99.90;;;;;;5120281;27;20126;-72
2023/06/15 04:49:08;;;;;;;5.63;4.00;;;16.00;99.90;;;;;;5119255;27;20070;-72
2023/06/15 04:51:34;;;;;;;7.20;4.03;;;16.10;99.90;;;;;;5117129;27;20492;-72
2023/06/15 04:54:00;;;;;;;7.03;4.22;;;16.10;99.90;;;;;;5118876;27;20456;-72
2023/06/15 04:56:26;;;;;;;8.60;4.15;;;16.20;99.90;;;;;;5119392;27;20137;-72
2023/06/15 04:58:52;;;;;;;7.40;3.80;;;16.20;99.90;;;;;;5120524;27;20057;-73
2023/06/15 05:01:18;;;;;;;7.05;4.47;;;16.20;99.90;;;;;;5119167;27;20047;-73
2023/06/15 05:03:44;;;;;;;10.02;4.63;;;16.30;99.90;;;;;;5118162;27;20054;-72
2023/06/15 05:06:10;;;;;;;4.88;3.70;;;16.40;99.90;;;;;;5102398;27;20046;-72
2023/06/15 05:08:37;;;;;;;6.82;4.43;;;16.40;99.90;;;;;;5096445;27;20054;-71
2023/06/15 05:11:02;;;;;;;7.43;3.67;;;16.50;99.90;;;;;;5077081;27;20039;-72
2023/06/15 05:13:29;;;;;;;6.55;4.07;;;16.60;99.90;;;;;;5105223;27;20061;-71
2023/06/15 05:15:55;;;;;;;6.65;4.13;;;16.60;99.90;;;;;;5104509;27;20122;-72
2023/06/15 05:18:21;;;;;;;7.00;4.45;;;16.70;99.90;;;;;;5121457;27;20126;-73
2023/06/15 05:20:47;;;;;;;8.32;5.20;;;16.80;99.90;;;;;;5120700;27;20054;-71
2023/06/15 05:23:13;;;;;;;8.30;4.25;;;16.80;99.90;;;;;;5102207;27;21074;-72
2023/06/15 05:25:38;;;;;;;6.68;4.05;;;16.90;99.90;;;;;;5104697;27;20065;-72
2023/06/15 05:28:04;;;;;;;8.27;4.40;;;17.00;99.90;;;;;;5088048;27;20050;-71
2023/06/15 05:30:30;;;;;;;8.13;4.20;;;17.10;99.90;;;;;;5120651;27;20058;-72
2023/06/15 05:32:56;;;;;;;9.07;4.43;;;17.10;99.90;;;;;;5117810;27;20051;-72
2023/06/15 05:35:22;;;;;;;4.80;3.60;;;17.20;99.90;;;;;;5103018;27;20100;-72
2023/06/15 05:37:47;;;;;;;6.43;4.22;;;17.40;99.90;;;;;;5104027;27;20509;-71
2023/06/15 05:40:13;;;;;;;6.47;3.88;;;17.40;99.90;;;;;;5069943;27;20134;-72
2023/06/15 05:42:39;;;;;;;8.32;4.00;;;17.60;99.90;;;;;;5118775;27;20517;-72
2023/06/15 05:45:05;;;;;;;5.68;4.00;;;17.70;99.90;;;;;;5138803;27;20046;-72
2023/06/15 05:47:35;;;;;;;7.97;3.83;;;17.90;99.90;;;;;;5118924;27;20126;-72
2023/06/15 05:50:01;;;;;;;5.85;4.10;;;18.00;99.90;;;;;;5101704;27;20050;-72
2023/06/15 05:52:27;;;;;;;6.65;3.97;;;18.10;99.90;;;;;;5118554;27;20497;-71
2023/06/15 05:54:53;;;;;;;6.78;3.67;;;18.30;99.90;;;;;;5087659;27;20042;-72
2023/06/15 05:57:19;;;;;;;6.00;3.80;;;18.40;99.90;;;;;;5102617;27;20054;-72
2023/06/15 05:59:47;;;;;;;6.15;3.60;;;18.50;99.90;;;;;;5119172;27;20050;-71
2023/06/15 07:53:39;;;;;;;5.72;2.25;;;26.40;84.90;;;;;;5128397;27;20183;-71
2023/06/15 07:56:05;;;;;;;5.97;2.20;;;26.70;82.30;;;;;;5114564;27;20133;-73
2023/06/15 07:58:31;;;;;;;3.88;1.90;;;26.80;83.80;;;;;;5116418;27;20123;-72
2023/06/15 08:00:56;;;;;;;3.47;2.25;;;26.90;82.60;;;;;;5117261;27;20046;-72
2023/06/15 08:03:22;;;;;;;5.05;2.10;;;27.10;81.10;;;;;;5116877;27;20367;-72
2023/06/15 08:05:48;;;;;;;5.03;2.10;;;27.40;80.50;;;;;;5116168;27;20410;-73
2023/06/15 08:08:14;;;;;;;4.65;2.20;;;27.50;78.80;;;;;;5115001;27;20153;-73
2023/06/15 08:10:39;;;;;;;4.85;1.80;;;27.70;78.10;;;;;;5100088;27;20035;-72
2023/06/15 08:13:06;;;;;;;7.28;2.00;;;27.90;77.40;;;;;;5116950;27;20039;-72
2023/06/15 08:15:33;;;;;;;4.40;2.25;;;28.00;75.90;;;;;;5120553;27;20050;-71
2023/06/15 08:17:59;;;;;;;6.72;2.35;;;28.20;76.20;;;;;;5121448;27;20055;-71
2023/06/15 08:20:26;;;;;;;4.43;1.98;;;28.40;75.60;;;;;;5120055;27;20066;-72
2023/06/15 08:22:52;;;;;;;4.85;2.38;;;28.60;74.60;;;;;;5103955;27;20509;-73
2023/06/15 08:25:17;;;;;;;2.95;2.00;;;28.70;74.10;;;;;;5119417;27;20047;-73
2023/06/15 08:27:43;;;;;;;7.60;1.98;;;28.90;74.10;;;;;;5101591;27;20088;-72
2023/06/15 08:30:09;;;;;;;6.15;2.03;;;29.10;73.50;;;;;;5098994;27;20091;-72
2023/06/15 08:32:35;;;;;;;5.70;2.20;;;29.20;73.10;;;;;;5102901;27;20055;-73
2023/06/15 08:35:01;;;;;;;5.30;2.00;;;29.40;72.40;;;;;;5120893;27;20047;-73
2023/06/15 08:37:27;;;;;;;5.97;1.80;;;29.30;72.00;;;;;;5086973;27;20051;-72
2023/06/15 08:39:52;;;;;;;4.30;2.20;;;29.30;72.60;;;;;;5120498;27;20055;-72
2023/06/15 08:42:23;;;;;;;9.23;1.95;;;29.40;72.90;;;;;;5118994;27;20035;-72
2023/06/15 08:44:52;;;;;;;4.90;2.22;;;29.50;72.30;;;;;;5120976;27;20042;-73
2023/06/15 08:47:18;;;;;;;4.60;1.90;;;29.70;72.00;;;;;;5104491;27;20046;-72
2023/06/15 08:49:45;;;;;;;6.35;2.05;;;29.70;72.00;;;;;;5102830;27;20545;-72
2023/06/15 08:52:13;;;;;;;4.00;2.10;;;29.80;71.50;;;;;;5102324;27;20051;-73
2023/06/15 08:54:42;;;;;;;4.93;1.80;;;30.00;71.00;;;;;;5103435;27;20045;-72
2023/06/15 08:57:08;;;;;;;4.30;1.90;;;30.20;70.50;;;;;;5120231;27;20047;-73
2023/06/15 08:59:35;;;;;;;3.45;1.92;;;30.30;69.10;;;;;;5101798;27;20559;-73
2023/06/15 09:02:03;;;;;;;5.47;2.00;;;30.30;67.60;;;;;;5102029;27;20096;-72
2023/06/15 09:04:30;;;;;;;6.65;2.10;;;30.40;67.00;;;;;;5119315;27;20167;-72
2023/06/15 09:06:58;;;;;;;5.68;2.10;;;30.40;66.20;;;;;;5119754;27;20067;-72
2023/06/15 09:09:23;;;;;;;4.82;2.13;;;30.40;66.50;;;;;;5118721;27;20126;-72
2023/06/15 09:11:49;;;;;;;4.53;1.80;;;30.40;66.20;;;;;;5119494;27;20616;-72
2023/06/15 09:14:15;;;;;;;6.57;2.10;;;30.60;66.40;;;;;;5084747;27;20925;-72
2023/06/15 09:16:41;;;;;;;5.47;2.00;;;30.60;66.80;;;;;;5101767;27;20050;-72
2023/06/15 09:19:11;;;;;;;6.60;2.13;;;30.70;66.80;;;;;;5100830;27;20047;-72
2023/06/15 09:21:42;;;;;;;4.00;2.15;;;30.80;66.30;;;;;;5119447;27;20047;-72
2023/06/15 09:24:08;;;;;;;7.70;2.05;;;30.90;64.90;;;;;;5100909;27;20081;-72
2023/06/15 09:26:36;;;;;;;4.10;1.83;;;31.00;65.30;;;;;;5094252;27;20035;-73
2023/06/15 09:29:08;;;;;;;4.70;1.85;;;31.30;64.10;;;;;;5119127;27;20157;-73
2023/06/15 09:31:35;;;;;;;4.43;2.10;;;31.50;63.60;;;;;;5117113;27;20171;-71
2023/06/15 09:34:06;;;;;;;8.68;2.40;;;31.50;63.70;;;;;;5119094;27;20256;-72
2023/06/15 09:36:44;;;;;;;4.95;2.30;;;31.30;63.30;;;;;;5119832;27;20564;-71
2023/06/15 09:39:12;;;;;;;4.95;2.00;;;31.20;63.00;;;;;;5120457;27;20042;-71
2023/06/15 09:41:57;;;;;;;6.07;1.85;;;31.00;63.50;;;;;;5117480;27;20074;-72
2023/06/15 09:44:23;;;;;;;3.20;2.08;;;30.90;62.40;;;;;;5102605;27;20062;-73
2023/06/15 09:46:51;;;;;;;4.40;1.75;;;30.70;64.20;;;;;;5118732;27;20143;-72
2023/06/15 09:49:34;;;;;;;3.47;1.73;;;30.80;64.40;;;;;;5119562;27;20117;-72
2023/06/15 09:52:00;;;;;;;3.75;1.92;;;31.10;63.20;;;;;;5116908;27;20393;-71
2023/06/15 09:54:30;;;;;;;6.90;2.17;;;31.20;63.60;;;;;;5118183;27;20050;-73
2023/06/15 09:56:57;;;;;;;4.55;2.17;;;31.40;63.50;;;;;;5118165;27;20047;-71
2023/06/15 09:59:23;;;;;;;4.00;2.00;;;31.40;62.20;;;;;;5102004;27;20143;-72
2023/06/15 10:01:50;;;;;;;3.97;1.80;;;31.40;61.90;;;;;;5100488;27;20119;-73
2023/06/15 10:04:19;;;;;;;4.15;1.80;;;31.30;60.70;;;;;;5116518;27;20037;-72
2023/06/15 10:06:49;;;;;;;4.15;1.80;;;31.50;61.20;;;;;;5118406;27;20095;-72
2023/06/15 10:09:18;;;;;;;6.82;1.80;;;31.70;60.00;;;;;;5117989;27;20141;-73
2023/06/15 10:11:47;;;;;;;2.85;1.77;;;31.80;59.40;;;;;;5118193;27;20058;-71
2023/06/15 10:14:31;;;;;;;4.47;1.83;;;31.80;59.10;;;;;;5118871;27;20543;-73
2023/06/15 10:17:06;;;;;;;2.85;1.67;;;31.90;58.00;;;;;;5118282;27;20196;-72
2023/06/15 10:19:38;;;;;;;3.88;1.92;;;32.00;56.80;;;;;;5102667;27;20059;-72
2023/06/15 10:22:08;;;;;;;4.65;1.73;;;32.10;57.80;;;;;;5118950;27;20494;-73
2023/06/15 10:24:40;;;;;;;4.13;1.83;;;32.30;55.70;;;;;;5119102;27;20047;-72
2023/06/15 10:27:06;;;;;;;5.18;1.90;;;32.50;57.20;;;;;;5118562;27;20074;-72
2023/06/15 10:29:38;;;;;;;3.58;1.88;;;32.60;56.30;;;;;;5117453;27;20408;-72
2023/06/15 10:32:36;;;;;;;5.25;2.03;;;32.70;55.90;;;;;;5118486;27;20097;-72
2023/06/15 10:35:25;;;;;;;2.75;1.60;;;32.90;56.20;;;;;;5116099;27;20765;-72
2023/06/15 10:38:04;;;;;;;4.22;1.83;;;33.20;55.00;;;;;;5100075;27;20070;-73
2023/06/15 10:40:36;;;;;;;4.47;1.90;;;33.40;54.70;;;;;;5117314;27;20058;-72
2023/06/15 10:43:02;;;;;;;5.10;2.20;;;33.50;54.90;;;;;;5118416;27;20126;-72
2023/06/15 10:45:29;;;;;;;3.92;1.83;;;33.40;55.00;;;;;;5116581;27;20054;-71
2023/06/15 10:47:58;;;;;;;4.13;1.80;;;33.50;54.90;;;;;;5100993;27;20111;-72
2023/06/15 10:50:36;;;;;;;3.63;1.85;;;33.30;54.40;;;;;;5118190;27;20489;-71
2023/06/15 10:53:02;;;;;;;4.80;1.88;;;33.30;54.70;;;;;;5117789;27;20041;-72
2023/06/15 10:55:28;;;;;;;4.30;1.95;;;33.40;54.70;;;;;;5084050;27;20047;-71
2023/06/15 10:58:16;;;;;;;4.10;1.92;;;33.10;54.00;;;;;;5117262;27;20039;-72
2023/06/15 11:00:44;;;;;;;3.80;1.75;;;32.90;53.40;;;;;;5116989;27;20442;-71
2023/06/15 11:03:24;;;;;;;5.03;2.00;;;32.90;54.00;;;;;;5117904;27;20082;-71
2023/06/15 11:06:07;;;;;;;3.92;1.85;;;32.80;53.00;;;;;;5116069;27;20043;-71
2023/06/15 11:08:51;;;;;;;3.72;1.95;;;32.80;52.70;;;;;;5118263;27;20043;-72
2023/06/15 11:11:32;;;;;;;3.88;1.98;;;32.50;50.40;;;;;;5118130;27;20041;-71
2023/06/15 11:14:07;;;;;;;4.28;2.13;;;32.30;52.90;;;;;;5116750;27;20043;-72
2023/06/15 11:16:38;;;;;;;6.93;2.08;;;32.30;51.30;;;;;;5100144;27;20031;-71
2023/06/15 11:19:10;;;;;;;5.30;2.00;;;32.30;52.60;;;;;;5083489;27;20130;-72
2023/06/15 11:21:40;;;;;;;3.60;1.83;;;32.60;52.50;;;;;;5117478;27;20631;-71
2023/06/15 11:24:07;;;;;;;4.95;1.98;;;32.70;52.10;;;;;;5101198;27;20042;-70
2023/06/15 11:26:34;;;;;;;4.50;1.90;;;32.70;52.20;;;;;;5116656;27;20118;-70
2023/06/15 11:29:03;;;;;;;5.22;1.80;;;32.40;51.30;;;;;;5119500;27;20107;-71
2023/06/15 11:31:31;;;;;;;3.53;1.70;;;32.30;52.10;;;;;;5087135;27;20049;-71
2023/06/15 11:33:57;;;;;;;4.43;1.70;;;32.30;52.80;;;;;;5117203;27;20162;-70
2023/06/15 11:36:23;;;;;;;4.03;1.88;;;32.30;53.40;;;;;;5084815;27;20040;-73
2023/06/15 11:38:49;;;;;;;3.08;1.80;;;32.40;52.20;;;;;;5117250;27;20092;-71
2023/06/15 11:41:15;;;;;;;3.50;1.85;;;32.40;53.10;;;;;;5098201;27;20058;-72
2023/06/15 11:43:52;;;;;;;3.30;1.65;;;32.10;53.20;;;;;;5083958;27;20431;-72
2023/06/15 11:46:22;;;;;;;4.40;1.73;;;32.10;52.70;;;;;;5118005;27;20046;-72
2023/06/15 11:48:49;;;;;;;5.97;2.05;;;32.10;53.50;;;;;;5101222;27;20055;-72
2023/06/15 11:51:18;;;;;;;4.90;1.90;;;32.30;54.60;;;;;;5137278;27;20104;-72
2023/06/15 11:53:45;;;;;;;4.13;1.90;;;32.50;54.90;;;;;;5119924;27;20058;-72
2023/06/15 11:56:13;;;;;;;2.95;1.67;;;32.60;54.50;;;;;;5119232;27;20049;-72
2023/06/15 11:58:40;;;;;;;7.15;2.05;;;32.70;53.70;;;;;;5119820;27;20058;-71
2023/06/15 12:01:06;;;;;;;2.72;1.70;;;32.70;54.20;;;;;;5121787;27;20051;-71
2023/06/15 12:03:37;;;;;;;6.95;2.10;;;32.80;55.00;;;;;;5119536;27;20091;-73
2023/06/15 12:06:03;;;;;;;4.22;1.80;;;32.80;55.90;;;;;;5087679;27;20088;-73
2023/06/15 12:08:31;;;;;;;7.13;2.38;;;32.90;55.60;;;;;;5118926;27;20046;-72
2023/06/15 12:10:57;;;;;;;3.95;1.98;;;32.90;56.60;;;;;;5120386;27;20389;-72
2023/06/15 12:13:23;;;;;;;2.83;1.90;;;33.00;57.40;;;;;;5103804;27;20497;-72
2023/06/15 12:15:50;;;;;;;3.95;2.33;;;33.10;57.70;;;;;;5103165;27;20055;-72
2023/06/15 12:18:17;;;;;;;3.58;2.00;;;33.30;57.90;;;;;;5118251;27;20378;-72
2023/06/15 12:20:44;;;;;;;3.72;1.90;;;33.30;58.10;;;;;;5118761;27;20492;-72
2023/06/15 12:23:10;;;;;;;3.20;1.70;;;33.50;58.40;;;;;;5120709;27;20129;-72
2023/06/15 12:25:44;;;;;;;4.63;1.77;;;33.70;58.40;;;;;;5119550;27;20130;-72
2023/06/15 12:28:15;;;;;;;4.75;2.00;;;34.00;59.00;;;;;;5120111;27;20427;-73
2023/06/15 12:30:42;;;;;;;4.85;1.90;;;34.20;58.30;;;;;;5118537;27;20420;-73
2023/06/15 12:33:25;;;;;;;2.53;1.95;;;34.40;57.90;;;;;;5118796;27;20034;-72
2023/06/15 12:35:52;;;;;;;4.18;1.83;;;34.30;58.50;;;;;;5118392;27;20046;-72
2023/06/15 12:38:19;;;;;;;3.83;2.20;;;34.00;58.20;;;;;;5103487;27;20062;-72
2023/06/15 12:40:45;;;;;;;3.95;2.17;;;34.00;58.30;;;;;;5119961;27;20039;-72
2023/06/15 12:43:11;;;;;;;3.42;1.85;;;34.00;57.90;;;;;;5120243;27;20096;-72
2023/06/15 12:45:37;;;;;;;4.70;2.00;;;33.80;58.10;;;;;;5086545;27;20039;-73
2023/06/15 12:48:04;;;;;;;4.18;2.00;;;33.90;57.90;;;;;;5117384;27;20042;-72
2023/06/15 12:50:30;;;;;;;4.50;1.52;;;33.70;57.70;;;;;;5103178;27;20121;-71
2023/06/15 12:52:57;;;;;;;4.38;1.95;;;33.90;57.90;;;;;;5105972;27;20043;-72
2023/06/15 12:55:24;;;;;;;5.63;2.00;;;33.90;56.90;;;;;;5118033;27;20042;-71
2023/06/15 12:57:50;;;;;;;4.78;1.67;;;34.00;56.60;;;;;;5117854;27;20572;-72
2023/06/15 13:00:17;;;;;;;3.80;1.70;;;34.00;56.30;;;;;;5120120;27;20049;-72
2023/06/15 13:02:43;;;;;;;5.25;1.95;;;34.00;56.70;;;;;;5119636;27;20051;-72
2023/06/15 13:05:10;;;;;;;4.40;2.10;;;34.00;56.60;;;;;;5119945;27;20107;-72
2023/06/15 13:07:39;;;;;;;2.72;1.63;;;34.10;56.00;;;;;;5101246;27;20374;-73
2023/06/15 13:10:06;;;;;;;4.15;2.00;;;34.10;55.80;;;;;;5088860;27;20209;-73
2023/06/15 13:12:32;;;;;;;4.53;1.83;;;34.20;56.10;;;;;;5117352;27;20075;-72
2023/06/15 13:14:58;;;;;;;4.30;1.83;;;34.40;55.90;;;;;;5102511;27;20075;-72
2023/06/15 13:17:24;;;;;;;2.88;1.75;;;34.30;54.80;;;;;;5102991;27;20039;-72
2023/06/15 13:19:49;;;;;;;3.63;1.83;;;34.20;54.90;;;;;;5102486;27;20043;-72
2023/06/15 13:22:16;;;;;;;5.32;1.98;;;34.10;54.30;;;;;;5119205;27;20039;-73
2023/06/15 13:24:41;;;;;;;3.97;1.80;;;34.20;54.10;;;;;;5086168;27;20045;-72
2023/06/15 13:27:08;;;;;;;3.35;1.70;;;34.30;54.50;;;;;;5101202;27;20043;-73
2023/06/15 13:29:38;;;;;;;3.60;1.70;;;34.60;54.80;;;;;;5119604;27;20168;-72
2023/06/15 13:32:05;;;;;;;3.50;1.73;;;34.40;54.40;;;;;;5101778;27;20126;-72
2023/06/15 13:34:31;;;;;;;3.45;1.90;;;34.40;54.40;;;;;;5117047;27;20043;-70
2023/06/15 13:36:57;;;;;;;3.35;1.67;;;34.30;54.50;;;;;;5120666;27;20122;-72
2023/06/15 13:39:22;;;;;;;5.05;2.25;;;34.30;54.20;;;;;;5119978;27;20122;-72
2023/06/15 13:41:48;;;;;;;9.20;2.10;;;34.30;53.90;;;;;;5102125;27;20053;-73
2023/06/15 13:44:14;;;;;;;3.90;1.95;;;34.10;53.20;;;;;;5118194;27;20046;-72
2023/06/15 13:46:40;;;;;;;5.97;2.00;;;34.00;53.80;;;;;;5118924;27;20042;-72
2023/06/15 13:49:07;;;;;;;3.85;1.98;;;33.90;53.80;;;;;;5120012;27;20122;-72
2023/06/15 13:51:33;;;;;;;3.35;2.00;;;33.60;53.40;;;;;;5120315;27;20043;-72
2023/06/15 13:53:59;;;;;;;3.72;1.92;;;33.20;52.90;;;;;;5119009;27;20485;-72
2023/06/15 13:56:25;;;;;;;5.40;1.90;;;33.10;54.10;;;;;;5105479;27;20035;-72
2023/06/15 13:58:51;;;;;;;4.18;1.92;;;33.30;54.60;;;;;;5085994;27;20675;-72
2023/06/15 14:01:23;;;;;;;3.08;1.75;;;33.50;53.50;;;;;;5102189;27;20042;-72
2023/06/15 14:03:53;;;;;;;3.10;1.70;;;33.80;53.40;;;;;;5118601;27;20055;-73
2023/06/15 14:06:22;;;;;;;3.33;1.90;;;34.00;52.50;;;;;;5118722;27;20038;-72
2023/06/15 14:08:48;;;;;;;3.30;2.05;;;34.20;52.90;;;;;;5118890;27;20051;-72
2023/06/15 14:11:15;;;;;;;4.32;1.90;;;34.30;53.00;;;;;;5117366;27;20139;-72
2023/06/15 14:13:50;;;;;;;3.58;1.90;;;34.30;52.70;;;;;;5117609;27;20042;-72
2023/06/15 14:16:19;;;;;;;3.72;1.90;;;34.40;52.30;;;;;;5118351;27;20384;-73
2023/06/15 14:18:50;;;;;;;4.53;2.00;;;34.30;51.60;;;;;;5118628;27;20039;-73
2023/06/15 14:21:16;;;;;;;6.63;1.80;;;34.00;51.50;;;;;;5117743;27;20507;-73
2023/06/15 14:23:42;;;;;;;4.80;1.60;;;33.50;52.10;;;;;;5115630;27;20580;-73
2023/06/15 14:26:08;;;;;;;3.58;1.80;;;33.10;52.30;;;;;;5118737;27;20400;-73
2023/06/15 14:28:34;;;;;;;4.70;2.05;;;33.00;52.80;;;;;;5099856;27;20050;-73
2023/06/15 14:31:00;;;;;;;4.68;1.90;;;33.10;52.90;;;;;;5083550;27;20043;-72
2023/06/15 14:33:27;;;;;;;2.83;1.48;;;33.00;53.00;;;;;;5098660;27;20066;-71
2023/06/15 14:35:53;;;;;;;3.97;2.00;;;33.10;53.10;;;;;;5101349;27;20050;-72
2023/06/15 14:38:19;;;;;;;3.22;1.85;;;33.10;53.50;;;;;;5084886;27;20043;-71
2023/06/15 14:40:45;;;;;;;6.22;2.03;;;33.20;53.30;;;;;;5117954;27;20130;-71
2023/06/15 14:43:11;;;;;;;2.70;1.77;;;33.20;53.10;;;;;;5101828;27;20501;-73